Terminal Aerodrome Forecast
Issued by NWS Wilmington, NC

Home | Current Version | Previous Version | Text Only | Print | Product List | Glossary On
Versions: 1 2 3 4 5 6 7 8 9 10 11 12 13
298
FTUS42 KILM 282329
TAFLBT
TAF
KLBT 282329Z 2900/2924 05005KT P6SM VCSH SCT040 BKN100
      TEMPO 2905/2909 4SM SHRA BR SCT006 BKN015
     FM290900 03009KT 6SM BR VCSH BKN005 OVC015
     FM291300 08009KT 3SM SHRA BR OVC015=

USA.gov is the U.S. government's official web portal to all federal, state and local government web resources and services.